sensor_id;sensor_type;location;lat;lon;timestamp;temperature;humidity
20504;DHT22;10410;51.046;6.980;2022-12-08T00:02:45;4.20;99.90
20504;DHT22;10410;51.046;6.980;2022-12-08T00:09:46;4.20;99.90
20504;DHT22;10410;51.046;6.980;2022-12-08T00:16:46;4.20;99.90
20504;DHT22;10410;51.046;6.980;2022-12-08T00:23:48;4.20;99.90
20504;DHT22;10410;51.046;6.980;2022-12-08T00:30:48;4.20;99.90
20504;DHT22;10410;51.046;6.980;2022-12-08T00:37:48;4.20;99.90
20504;DHT22;10410;51.046;6.980;2022-12-08T00:44:49;4.20;99.90
20504;DHT22;10410;51.046;6.980;2022-12-08T00:51:49;4.20;99.90
20504;DHT22;10410;51.046;6.980;2022-12-08T00:58:50;4.20;99.90
20504;DHT22;10410;51.046;6.980;2022-12-08T01:05:51;4.30;99.90
20504;DHT22;10410;51.046;6.980;2022-12-08T01:12:52;4.30;99.90
20504;DHT22;10410;51.046;6.980;2022-12-08T01:19:52;4.30;99.90
20504;DHT22;10410;51.046;6.980;2022-12-08T01:26:53;4.30;99.90
20504;DHT22;10410;51.046;6.980;2022-12-08T01:33:53;4.30;99.90
20504;DHT22;10410;51.046;6.980;2022-12-08T01:40:53;4.30;99.90
20504;DHT22;10410;51.046;6.980;2022-12-08T01:48:06;4.40;99.90
20504;DHT22;10410;51.046;6.980;2022-12-08T01:55:20;4.40;99.90
20504;DHT22;10410;51.046;6.980;2022-12-08T02:02:22;4.40;99.90
20504;DHT22;10410;51.046;6.980;2022-12-08T02:09:24;4.40;99.90
20504;DHT22;10410;51.046;6.980;2022-12-08T02:24:11;4.40;99.90
20504;DHT22;10410;51.046;6.980;2022-12-08T02:52:55;4.40;99.90
20504;DHT22;10410;51.046;6.980;2022-12-08T03:00:12;4.50;99.90
20504;DHT22;10410;51.046;6.980;2022-12-08T03:07:37;4.50;99.90
20504;DHT22;10410;51.046;6.980;2022-12-08T03:14:43;4.50;99.90
20504;DHT22;10410;51.046;6.980;2022-12-08T03:21:53;4.50;99.90
20504;DHT22;10410;51.046;6.980;2022-12-08T03:28:59;4.50;99.90
20504;DHT22;10410;51.046;6.980;2022-12-08T03:36:01;4.50;99.90
20504;DHT22;10410;51.046;6.980;2022-12-08T03:43:03;4.50;99.90
20504;DHT22;10410;51.046;6.980;2022-12-08T03:50:04;4.50;99.90
20504;DHT22;10410;51.046;6.980;2022-12-08T03:57:06;4.40;99.90
20504;DHT22;10410;51.046;6.980;2022-12-08T04:04:06;4.40;99.90
20504;DHT22;10410;51.046;6.980;2022-12-08T04:11:07;4.40;99.90
20504;DHT22;10410;51.046;6.980;2022-12-08T04:18:07;4.40;99.90
20504;DHT22;10410;51.046;6.980;2022-12-08T04:25:08;4.40;99.90
20504;DHT22;10410;51.046;6.980;2022-12-08T04:32:08;4.50;99.90
20504;DHT22;10410;51.046;6.980;2022-12-08T04:39:09;4.50;99.90
20504;DHT22;10410;51.046;6.980;2022-12-08T04:46:10;4.40;99.90
20504;DHT22;10410;51.046;6.980;2022-12-08T04:53:11;4.50;99.90
20504;DHT22;10410;51.046;6.980;2022-12-08T05:00:12;4.40;99.90
20504;DHT22;10410;51.046;6.980;2022-12-08T05:07:13;4.40;99.90
20504;DHT22;10410;51.046;6.980;2022-12-08T05:14:14;4.30;99.90
20504;DHT22;10410;51.046;6.980;2022-12-08T05:21:15;4.40;99.90
20504;DHT22;10410;51.046;6.980;2022-12-08T05:28:15;4.40;99.90
20504;DHT22;10410;51.046;6.980;2022-12-08T05:35:36;4.40;99.90
20504;DHT22;10410;51.046;6.980;2022-12-08T05:42:36;4.50;99.90
20504;DHT22;10410;51.046;6.980;2022-12-08T05:49:36;4.50;99.90
20504;DHT22;10410;51.046;6.980;2022-12-08T05:56:37;4.40;99.90
20504;DHT22;10410;51.046;6.980;2022-12-08T06:03:37;4.40;99.90
20504;DHT22;10410;51.046;6.980;2022-12-08T06:10:42;4.40;99.90
20504;DHT22;10410;51.046;6.980;2022-12-08T06:17:43;4.40;99.90
20504;DHT22;10410;51.046;6.980;2022-12-08T06:24:43;4.30;99.90
20504;DHT22;10410;51.046;6.980;2022-12-08T06:31:44;4.30;99.90
20504;DHT22;10410;51.046;6.980;2022-12-08T06:38:44;4.30;99.90
20504;DHT22;10410;51.046;6.980;2022-12-08T06:45:45;4.20;99.90
20504;DHT22;10410;51.046;6.980;2022-12-08T06:52:45;4.20;99.90
20504;DHT22;10410;51.046;6.980;2022-12-08T07:00:00;4.10;99.90
20504;DHT22;10410;51.046;6.980;2022-12-08T07:07:01;4.00;99.90
20504;DHT22;10410;51.046;6.980;2022-12-08T07:14:01;4.00;99.90
20504;DHT22;10410;51.046;6.980;2022-12-08T07:21:08;4.00;99.90
20504;DHT22;10410;51.046;6.980;2022-12-08T07:28:09;4.00;99.90
20504;DHT22;10410;51.046;6.980;2022-12-08T07:35:10;3.90;99.90
20504;DHT22;10410;51.046;6.980;2022-12-08T07:42:10;3.90;99.90
20504;DHT22;10410;51.046;6.980;2022-12-08T07:49:10;3.90;99.90
20504;DHT22;10410;51.046;6.980;2022-12-08T07:56:12;3.90;99.90
20504;DHT22;10410;51.046;6.980;2022-12-08T08:03:12;4.00;99.90
20504;DHT22;10410;51.046;6.980;2022-12-08T08:10:13;3.90;99.90
20504;DHT22;10410;51.046;6.980;2022-12-08T08:17:14;3.90;99.90
20504;DHT22;10410;51.046;6.980;2022-12-08T08:24:14;3.80;99.90
20504;DHT22;10410;51.046;6.980;2022-12-08T08:31:15;3.70;99.90
20504;DHT22;10410;51.046;6.980;2022-12-08T08:38:15;3.60;99.90
20504;DHT22;10410;51.046;6.980;2022-12-08T08:45:16;3.60;99.90
20504;DHT22;10410;51.046;6.980;2022-12-08T08:52:16;3.70;99.90
20504;DHT22;10410;51.046;6.980;2022-12-08T08:59:16;3.80;99.90
20504;DHT22;10410;51.046;6.980;2022-12-08T09:06:17;3.80;99.90
20504;DHT22;10410;51.046;6.980;2022-12-08T09:13:18;3.90;99.90
20504;DHT22;10410;51.046;6.980;2022-12-08T09:20:18;3.90;99.90
20504;DHT22;10410;51.046;6.980;2022-12-08T09:27:19;3.90;99.90
20504;DHT22;10410;51.046;6.980;2022-12-08T09:34:19;4.00;99.90
20504;DHT22;10410;51.046;6.980;2022-12-08T09:48:44;4.00;99.90
20504;DHT22;10410;51.046;6.980;2022-12-08T09:55:54;4.10;99.90
20504;DHT22;10410;51.046;6.980;2022-12-08T10:02:55;4.10;99.90
20504;DHT22;10410;51.046;6.980;2022-12-08T10:10:04;4.10;99.90
20504;DHT22;10410;51.046;6.980;2022-12-08T10:31:33;4.10;99.90
20504;DHT22;10410;51.046;6.980;2022-12-08T10:38:34;4.10;99.90
20504;DHT22;10410;51.046;6.980;2022-12-08T10:45:38;4.10;99.90
20504;DHT22;10410;51.046;6.980;2022-12-08T10:52:40;4.10;99.90
20504;DHT22;10410;51.046;6.980;2022-12-08T10:59:41;4.00;99.90
20504;DHT22;10410;51.046;6.980;2022-12-08T11:06:42;4.10;99.90
20504;DHT22;10410;51.046;6.980;2022-12-08T11:13:42;4.10;99.90
20504;DHT22;10410;51.046;6.980;2022-12-08T11:20:43;4.10;99.90
20504;DHT22;10410;51.046;6.980;2022-12-08T11:27:48;4.10;99.90
20504;DHT22;10410;51.046;6.980;2022-12-08T11:35:01;4.20;99.90
20504;DHT22;10410;51.046;6.980;2022-12-08T11:42:06;4.20;99.90
20504;DHT22;10410;51.046;6.980;2022-12-08T11:49:12;4.20;99.90
20504;DHT22;10410;51.046;6.980;2022-12-08T11:56:26;4.20;99.90
20504;DHT22;10410;51.046;6.980;2022-12-08T12:03:38;4.20;99.90
20504;DHT22;10410;51.046;6.980;2022-12-08T12:11:02;4.20;99.90
20504;DHT22;10410;51.046;6.980;2022-12-08T12:25:35;4.30;99.90
20504;DHT22;10410;51.046;6.980;2022-12-08T12:32:56;4.40;99.90
20504;DHT22;10410;51.046;6.980;2022-12-08T12:40:04;4.50;99.90
20504;DHT22;10410;51.046;6.980;2022-12-08T12:47:11;4.50;99.90
20504;DHT22;10410;51.046;6.980;2022-12-08T12:54:23;4.60;99.90
20504;DHT22;10410;51.046;6.980;2022-12-08T13:01:52;4.70;99.90
20504;DHT22;10410;51.046;6.980;2022-12-08T13:08:54;4.80;99.90
20504;DHT22;10410;51.046;6.980;2022-12-08T13:16:12;4.80;99.90
20504;DHT22;10410;51.046;6.980;2022-12-08T13:30:48;4.80;99.90
20504;DHT22;10410;51.046;6.980;2022-12-08T13:37:50;4.80;99.90
20504;DHT22;10410;51.046;6.980;2022-12-08T13:52:34;4.90;99.90
20504;DHT22;10410;51.046;6.980;2022-12-08T14:00:04;4.90;99.90
20504;DHT22;10410;51.046;6.980;2022-12-08T14:07:12;4.90;99.90
20504;DHT22;10410;51.046;6.980;2022-12-08T14:14:23;4.80;99.90
20504;DHT22;10410;51.046;6.980;2022-12-08T14:21:52;4.80;99.90
20504;DHT22;10410;51.046;6.980;2022-12-08T14:28:53;4.80;99.90
20504;DHT22;10410;51.046;6.980;2022-12-08T14:35:54;4.80;99.90
20504;DHT22;10410;51.046;6.980;2022-12-08T14:43:13;4.80;99.90
20504;DHT22;10410;51.046;6.980;2022-12-08T14:57:39;4.70;99.90
20504;DHT22;10410;51.046;6.980;2022-12-08T15:04:45;4.70;99.90
20504;DHT22;10410;51.046;6.980;2022-12-08T15:11:46;4.60;99.90
20504;DHT22;10410;51.046;6.980;2022-12-08T15:19:12;4.60;99.90
20504;DHT22;10410;51.046;6.980;2022-12-08T15:26:21;4.50;99.90
20504;DHT22;10410;51.046;6.980;2022-12-08T15:33:22;4.40;99.90
20504;DHT22;10410;51.046;6.980;2022-12-08T15:40:22;4.40;99.90
20504;DHT22;10410;51.046;6.980;2022-12-08T15:47:25;4.40;99.90
20504;DHT22;10410;51.046;6.980;2022-12-08T15:54:26;4.40;99.90
20504;DHT22;10410;51.046;6.980;2022-12-08T16:01:26;4.40;99.90
20504;DHT22;10410;51.046;6.980;2022-12-08T16:08:27;4.40;99.90
20504;DHT22;10410;51.046;6.980;2022-12-08T16:15:48;4.50;99.90
20504;DHT22;10410;51.046;6.980;2022-12-08T16:23:00;4.40;99.90
20504;DHT22;10410;51.046;6.980;2022-12-08T16:30:20;4.40;99.90
20504;DHT22;10410;51.046;6.980;2022-12-08T16:37:22;4.40;99.90
20504;DHT22;10410;51.046;6.980;2022-12-08T16:44:23;4.40;99.90
20504;DHT22;10410;51.046;6.980;2022-12-08T16:51:24;4.40;99.90
20504;DHT22;10410;51.046;6.980;2022-12-08T16:58:26;4.30;99.90
20504;DHT22;10410;51.046;6.980;2022-12-08T17:05:29;4.30;99.90
20504;DHT22;10410;51.046;6.980;2022-12-08T17:12:29;4.30;99.90
20504;DHT22;10410;51.046;6.980;2022-12-08T17:19:30;4.30;99.90
20504;DHT22;10410;51.046;6.980;2022-12-08T17:26:31;4.30;99.90
20504;DHT22;10410;51.046;6.980;2022-12-08T17:33:31;4.20;99.90
20504;DHT22;10410;51.046;6.980;2022-12-08T17:40:31;4.20;99.90
20504;DHT22;10410;51.046;6.980;2022-12-08T17:47:32;4.10;99.90
20504;DHT22;10410;51.046;6.980;2022-12-08T17:54:32;4.00;99.90
20504;DHT22;10410;51.046;6.980;2022-12-08T18:01:33;4.00;99.90
20504;DHT22;10410;51.046;6.980;2022-12-08T18:08:34;4.00;99.90
20504;DHT22;10410;51.046;6.980;2022-12-08T18:15:35;4.00;99.90
20504;DHT22;10410;51.046;6.980;2022-12-08T18:22:38;4.00;99.90
20504;DHT22;10410;51.046;6.980;2022-12-08T18:29:39;3.90;99.90
20504;DHT22;10410;51.046;6.980;2022-12-08T18:36:39;3.90;99.90
20504;DHT22;10410;51.046;6.980;2022-12-08T18:43:39;3.80;99.90
20504;DHT22;10410;51.046;6.980;2022-12-08T18:50:40;3.80;99.90
20504;DHT22;10410;51.046;6.980;2022-12-08T18:57:43;3.70;99.90
20504;DHT22;10410;51.046;6.980;2022-12-08T19:04:44;3.60;99.90
20504;DHT22;10410;51.046;6.980;2022-12-08T19:11:45;3.70;99.90
20504;DHT22;10410;51.046;6.980;2022-12-08T19:18:45;3.70;99.90
20504;DHT22;10410;51.046;6.980;2022-12-08T19:25:45;3.70;99.90
20504;DHT22;10410;51.046;6.980;2022-12-08T19:32:46;3.70;99.90
20504;DHT22;10410;51.046;6.980;2022-12-08T19:39:46;3.60;99.90
20504;DHT22;10410;51.046;6.980;2022-12-08T19:47:06;3.50;99.90
20504;DHT22;10410;51.046;6.980;2022-12-08T19:54:06;3.50;99.90
20504;DHT22;10410;51.046;6.980;2022-12-08T20:01:07;3.40;99.90
20504;DHT22;10410;51.046;6.980;2022-12-08T20:08:08;3.40;99.90
20504;DHT22;10410;51.046;6.980;2022-12-08T20:15:09;3.30;99.90
20504;DHT22;10410;51.046;6.980;2022-12-08T20:22:09;3.30;99.90
20504;DHT22;10410;51.046;6.980;2022-12-08T20:29:10;3.40;99.90
20504;DHT22;10410;51.046;6.980;2022-12-08T20:36:14;3.40;99.90
20504;DHT22;10410;51.046;6.980;2022-12-08T20:43:17;3.40;99.90
20504;DHT22;10410;51.046;6.980;2022-12-08T20:50:18;3.40;99.90
20504;DHT22;10410;51.046;6.980;2022-12-08T20:57:19;3.40;99.90
20504;DHT22;10410;51.046;6.980;2022-12-08T21:04:21;3.40;99.90
20504;DHT22;10410;51.046;6.980;2022-12-08T21:11:22;3.40;99.90
20504;DHT22;10410;51.046;6.980;2022-12-08T21:18:23;3.30;99.90
20504;DHT22;10410;51.046;6.980;2022-12-08T21:25:23;3.30;99.90
20504;DHT22;10410;51.046;6.980;2022-12-08T21:32:24;3.30;99.90
20504;DHT22;10410;51.046;6.980;2022-12-08T21:39:30;3.30;99.90
20504;DHT22;10410;51.046;6.980;2022-12-08T21:46:30;3.30;99.90
20504;DHT22;10410;51.046;6.980;2022-12-08T21:53:30;3.30;99.90
20504;DHT22;10410;51.046;6.980;2022-12-08T22:00:31;3.30;99.90
20504;DHT22;10410;51.046;6.980;2022-12-08T22:07:31;3.30;99.90
20504;DHT22;10410;51.046;6.980;2022-12-08T22:14:31;3.30;99.90
20504;DHT22;10410;51.046;6.980;2022-12-08T22:21:32;3.30;99.90
20504;DHT22;10410;51.046;6.980;2022-12-08T22:28:36;3.30;99.90
20504;DHT22;10410;51.046;6.980;2022-12-08T22:35:36;3.30;99.90
20504;DHT22;10410;51.046;6.980;2022-12-08T22:42:37;3.30;99.90
20504;DHT22;10410;51.046;6.980;2022-12-08T22:49:37;3.30;99.90
20504;DHT22;10410;51.046;6.980;2022-12-08T22:56:38;3.30;99.90
20504;DHT22;10410;51.046;6.980;2022-12-08T23:03:38;3.40;99.90
20504;DHT22;10410;51.046;6.980;2022-12-08T23:10:39;3.40;99.90
20504;DHT22;10410;51.046;6.980;2022-12-08T23:17:40;3.40;99.90
20504;DHT22;10410;51.046;6.980;2022-12-08T23:24:41;3.50;99.90
20504;DHT22;10410;51.046;6.980;2022-12-08T23:31:41;3.50;99.90
20504;DHT22;10410;51.046;6.980;2022-12-08T23:38:42;3.50;99.90
20504;DHT22;10410;51.046;6.980;2022-12-08T23:45:42;3.50;99.90
20504;DHT22;10410;51.046;6.980;2022-12-08T23:52:43;3.50;99.90
20504;DHT22;10410;51.046;6.980;2022-12-08T23:59:43;3.50;99.90
